LOWSLIPZ

Guest
Details From LOWS - Salzburg Maxglan
To LIPZ - Venezia Tessera
Flight Number -
Tags generated
Created
Modified
Stats Distance 140 nm / 260 km
Max Altitude 14,600 ft / 4,450 m
Waypoints 3
Social Downloads 5
Likes 0
Share VATSIM

Download

Looking for another format? Having issues loading an existing format? Contact us
Advertisement - Login to hide

Notes

Basic altitude profile: - Ascent Rate: 2500ft/min - Ascent Speed: 250kts - Cruise Altitude: 35000ft - Cruise Speed: 420kts - Descent Rate: 1500ft/min - Descent Speed: 250kts Options: - Use NATs: yes - Use PACOTS: yes - Use low airways: yes - Use high airways: yes

Route

LOWS MALUG LIPZ

ID Type Via Altitude Latitude Longitude Leg Dist Tot Dist Heading (true) Name
O LOWS APT - 0 ft / 0 m 47.79333˚ 13.00433˚ - 0 nm - Salzburg Maxglan
MALUG FIX - 14,600 ft / 4,450 m 46.70611˚ 12.59750˚ 67 nm 67 nm 194° / 194° -
O LIPZ APT - 0 ft / 0 m 45.50479˚ 12.34969˚ 72 nm 140 nm 188° / 188° Venezia Tessera

Altitude Profile

Advertisement - Login to hide

LOWS

Details ICAO LOWS (SZG)
Name Salzburg Maxglan
Region Austria
Timezone Europe/Vienna (UTC+1.0)
Stats Elevation 1,411 ft / 430 m (AMSL)
Location 47.793333° 13.004333°
Runways 1
Magnetic Variation 3.428° E

METAR

LOWS 171550Z 31008KT 2500 SHSN FEW005 SCT012 BKN023 00/M01 Q1022 TEMPO 1200 SHSN BKN008

Decode

TAF

TAF LOWS 171115Z 1712/1812 24005KT 9999 -SN SCT020 BKN035 TX02/1812Z TNM02/1806Z TEMPO 1712/1718 29012KT 2000 SHSN SCT008 BKN012 PROB30 TEMPO 1712/1715 1200 TSSN BKN006 FEW010CB PROB40 TEMPO 1718/1724 2500 SHSN SCT008 BKN014 BECMG 1804/1806 16005KT NSW FEW030 BKN050

Decode

Departure Runways

ID Width Length Bearing (true) Bearing (mag) Surface Threshold Offset Overrun Length
16 148 ft / 45 m 9,024 ft / 2,751 m 157.08° 153.65° Concrete 656 ft / 200 m 0 ft / 0 m
34 148 ft / 45 m 9,024 ft / 2,751 m 337.09° 333.66° Concrete 787 ft / 240 m 0 ft / 0 m

LIPZ

Details ICAO LIPZ (VCE)
Name Venezia Tessera
Region Italy
Timezone Europe/Rome (UTC+1.0)
Stats Elevation 7 ft / 2 m (AMSL)
Location 45.504791° 12.349691°
Runways 2
Magnetic Variation 3.180° E

METAR

LIPZ 171550Z 04003KT CAVOK 06/01 Q1020 NOSIG

Decode

TAF

TAF LIPZ 171100Z 1712/1818 02007KT 9999 FEW030

Decode

Destination Runways

ID Width Length Bearing (true) Bearing (mag) Surface Threshold Offset Overrun Length
04L 148 ft / 45 m 9,112 ft / 2,777 m 42.01° 38.83° Asphalt 312 ft / 95 m 0 ft / 0 m
04R 148 ft / 45 m 10,834 ft / 3,302 m 41.99° 38.81° Asphalt 0 ft / 0 m 0 ft / 0 m
22L 148 ft / 45 m 10,834 ft / 3,302 m 222.01° 218.83° Asphalt 0 ft / 0 m 0 ft / 0 m
22R 148 ft / 45 m 9,112 ft / 2,777 m 222.02° 218.84° Asphalt 0 ft / 0 m 0 ft / 0 m

Approach Navaids

Runway Type Ident Frequency Range Bearing (true) Bearing (mag) Slope Elevation
04R Localiser VTS 109.95 MHz 18 nm / 33 km 42.02° 38.84° - 13 ft / 4 m (AMSL)
04R Glidescope VTS 109.95 MHz 10 nm / 19 km 42.00° 38.82° 3.00° 52 ft / 16 m (AMSL)
04R DME VTS 109.95 MHz 18 nm / 33 km - - - 26 ft / 8 m (AMSL)

Popular Alternatives